createdAt,value
2019-05-02T00:00:21.000Z,13.08
2019-05-02T00:01:21.000Z,13.07
2019-05-02T00:02:21.000Z,13.06
2019-05-02T00:03:21.000Z,13.08
2019-05-02T00:04:21.000Z,13.05
2019-05-02T00:05:21.000Z,13.00
2019-05-02T00:06:21.000Z,12.46
2019-05-02T00:07:21.000Z,12.03
2019-05-02T00:08:21.000Z,11.74
2019-05-02T00:09:21.000Z,11.40
2019-05-02T00:10:21.000Z,11.23
2019-05-02T00:11:21.000Z,11.42
2019-05-02T00:12:21.000Z,11.54
2019-05-02T00:13:21.000Z,11.63
2019-05-02T00:14:22.000Z,11.70
2019-05-02T00:15:21.000Z,11.36
2019-05-02T00:16:21.000Z,11.07
2019-05-02T00:17:21.000Z,10.92
2019-05-02T00:18:21.000Z,11.11
2019-05-02T00:19:21.000Z,11.24
2019-05-02T00:20:21.000Z,11.35
2019-05-02T00:21:21.000Z,11.41
2019-05-02T00:22:21.000Z,11.48
2019-05-02T00:23:21.000Z,11.53
2019-05-02T00:24:21.000Z,11.58
2019-05-02T00:25:21.000Z,11.64
2019-05-02T00:26:21.000Z,11.68
2019-05-02T00:27:21.000Z,11.66
2019-05-02T00:28:21.000Z,11.66
2019-05-02T00:29:21.000Z,11.69
2019-05-02T00:30:21.000Z,11.70
2019-05-02T00:31:21.000Z,11.77
2019-05-02T00:32:21.000Z,11.79
2019-05-02T00:33:21.000Z,11.81
2019-05-02T00:34:21.000Z,11.85
2019-05-02T00:35:21.000Z,11.87
2019-05-02T00:36:21.000Z,11.88
2019-05-02T00:37:21.000Z,11.89
2019-05-02T00:38:21.000Z,11.93
2019-05-02T00:39:21.000Z,11.95
2019-05-02T00:40:21.000Z,11.96
2019-05-02T00:41:21.000Z,11.96
2019-05-02T00:42:21.000Z,11.99
2019-05-02T00:43:21.000Z,12.00
2019-05-02T00:44:21.000Z,12.00
2019-05-02T00:45:21.000Z,12.00
2019-05-02T00:46:21.000Z,12.00
2019-05-02T00:47:21.000Z,12.01
2019-05-02T00:48:21.000Z,12.01
2019-05-02T00:49:21.000Z,12.01
2019-05-02T00:50:21.000Z,12.02
2019-05-02T00:51:21.000Z,12.05
2019-05-02T00:52:21.000Z,12.05
2019-05-02T00:53:21.000Z,12.05
2019-05-02T00:54:21.000Z,12.06
2019-05-02T00:55:21.000Z,12.06
2019-05-02T00:56:21.000Z,12.06
2019-05-02T00:57:21.000Z,12.07
2019-05-02T00:58:21.000Z,12.10
2019-05-02T00:59:21.000Z,12.08
2019-05-02T01:00:21.000Z,12.09
2019-05-02T01:01:21.000Z,12.07
2019-05-02T01:02:21.000Z,12.05
2019-05-02T01:03:21.000Z,12.04
2019-05-02T01:04:21.000Z,12.01
2019-05-02T01:05:21.000Z,11.98
2019-05-02T01:06:21.000Z,11.98
2019-05-02T01:07:21.000Z,11.96
2019-05-02T01:08:21.000Z,11.96
2019-05-02T01:09:21.000Z,11.95
2019-05-02T01:10:21.000Z,11.96
2019-05-02T01:11:21.000Z,11.96
2019-05-02T01:12:21.000Z,11.95
2019-05-02T01:13:21.000Z,11.94
2019-05-02T01:14:21.000Z,11.89
2019-05-02T01:15:21.000Z,11.79
2019-05-02T01:16:21.000Z,11.68
2019-05-02T01:17:21.000Z,11.67
2019-05-02T01:18:21.000Z,11.57
2019-05-02T01:19:21.000Z,11.47
2019-05-02T01:20:21.000Z,11.37
2019-05-02T01:21:21.000Z,11.17
2019-05-02T01:22:21.000Z,11.13
2019-05-02T01:23:21.000Z,11.01
2019-05-02T01:24:21.000Z,11.01
2019-05-02T01:25:21.000Z,10.79
2019-05-02T01:26:21.000Z,10.75
2019-05-02T01:27:21.000Z,10.73
2019-05-02T01:28:21.000Z,10.73
2019-05-02T01:29:21.000Z,10.67
2019-05-02T01:30:21.000Z,10.73
2019-05-02T01:31:21.000Z,10.68
2019-05-02T01:32:21.000Z,10.67
2019-05-02T01:33:21.000Z,10.47
2019-05-02T01:34:21.000Z,10.44
2019-05-02T01:35:21.000Z,10.50
2019-05-02T01:36:21.000Z,10.51
2019-05-02T01:37:21.000Z,10.47
2019-05-02T01:38:21.000Z,10.44
2019-05-02T01:39:21.000Z,10.34
2019-05-02T01:40:21.000Z,10.42
2019-05-02T01:41:21.000Z,10.45
2019-05-02T01:42:21.000Z,10.47
2019-05-02T01:43:21.000Z,10.52
2019-05-02T01:44:21.000Z,10.54
2019-05-02T01:45:21.000Z,10.55
2019-05-02T01:46:21.000Z,10.59
2019-05-02T01:47:21.000Z,10.60
2019-05-02T01:48:21.000Z,10.64
2019-05-02T01:49:21.000Z,10.66
2019-05-02T01:50:21.000Z,10.69
2019-05-02T01:51:21.000Z,10.73
2019-05-02T01:52:21.000Z,10.73
2019-05-02T01:53:21.000Z,10.71
2019-05-02T01:54:21.000Z,10.73
2019-05-02T01:55:21.000Z,10.66
2019-05-02T01:56:21.000Z,10.50
2019-05-02T01:57:21.000Z,10.57
2019-05-02T01:58:21.000Z,10.60
2019-05-02T01:59:21.000Z,10.63
2019-05-02T02:00:21.000Z,10.63
2019-05-02T02:01:21.000Z,10.65
2019-05-02T02:02:21.000Z,10.70
2019-05-02T02:03:21.000Z,10.70
2019-05-02T02:04:21.000Z,10.70
2019-05-02T02:05:21.000Z,10.71
2019-05-02T02:06:21.000Z,10.71
2019-05-02T02:07:21.000Z,10.71
2019-05-02T02:08:21.000Z,10.72
2019-05-02T02:09:21.000Z,10.71
2019-05-02T02:10:21.000Z,10.71
2019-05-02T02:11:21.000Z,10.74
2019-05-02T02:12:21.000Z,10.74
2019-05-02T02:13:21.000Z,10.74
2019-05-02T02:14:21.000Z,10.77
2019-05-02T02:15:21.000Z,10.78
2019-05-02T02:16:21.000Z,10.79
2019-05-02T02:17:21.000Z,10.82
2019-05-02T02:18:21.000Z,10.80
2019-05-02T02:19:21.000Z,10.79
2019-05-02T02:20:21.000Z,10.80
2019-05-02T02:21:21.000Z,10.80
2019-05-02T02:22:21.000Z,10.81
2019-05-02T02:23:21.000Z,10.82
2019-05-02T02:24:22.000Z,10.80
2019-05-02T02:25:21.000Z,10.78
2019-05-02T02:26:21.000Z,10.77
2019-05-02T02:27:21.000Z,10.76
2019-05-02T02:28:21.000Z,10.72
2019-05-02T02:29:21.000Z,10.71
2019-05-02T02:30:21.000Z,10.73
2019-05-02T02:31:20.000Z,10.72
2019-05-02T02:32:20.000Z,10.66
2019-05-02T02:33:20.000Z,10.69
2019-05-02T02:34:20.000Z,10.67
2019-05-02T02:35:20.000Z,10.65
2019-05-02T02:36:20.000Z,10.64
2019-05-02T02:37:20.000Z,10.59
2019-05-02T02:38:20.000Z,10.59
2019-05-02T02:39:20.000Z,10.61
2019-05-02T02:40:20.000Z,10.57
2019-05-02T02:41:20.000Z,10.56
2019-05-02T02:42:20.000Z,10.53
2019-05-02T02:43:20.000Z,10.52
2019-05-02T02:44:20.000Z,10.50
2019-05-02T02:45:20.000Z,10.49
2019-05-02T02:46:20.000Z,10.48
2019-05-02T02:47:20.000Z,10.39
2019-05-02T02:48:20.000Z,10.38
2019-05-02T02:49:20.000Z,10.29
2019-05-02T02:50:20.000Z,10.27
2019-05-02T02:51:20.000Z,10.26
2019-05-02T02:52:20.000Z,10.25
2019-05-02T02:53:20.000Z,10.24
2019-05-02T02:54:20.000Z,10.21
2019-05-02T02:55:20.000Z,10.16
2019-05-02T02:56:20.000Z,10.13
2019-05-02T02:57:20.000Z,10.12
2019-05-02T02:58:20.000Z,10.09
2019-05-02T02:59:20.000Z,10.06
2019-05-02T03:00:20.000Z,10.08
2019-05-02T03:01:20.000Z,10.01
2019-05-02T03:02:20.000Z,10.01
2019-05-02T03:03:20.000Z,10.02
2019-05-02T03:04:20.000Z,10.01
2019-05-02T03:05:20.000Z,10.05
2019-05-02T03:06:20.000Z,10.05
2019-05-02T03:07:21.000Z,10.06
2019-05-02T03:08:20.000Z,10.08
2019-05-02T03:09:20.000Z,10.08
2019-05-02T03:10:20.000Z,10.10
2019-05-02T03:11:20.000Z,10.10
2019-05-02T03:12:20.000Z,10.11
2019-05-02T03:13:20.000Z,10.12
2019-05-02T03:14:22.000Z,10.15
2019-05-02T03:15:20.000Z,10.16
2019-05-02T03:16:20.000Z,10.17
2019-05-02T03:17:20.000Z,10.18
2019-05-02T03:18:20.000Z,10.17
2019-05-02T03:19:20.000Z,10.17
2019-05-02T03:20:20.000Z,10.19
2019-05-02T03:21:20.000Z,10.21
2019-05-02T03:22:20.000Z,10.22
2019-05-02T03:23:20.000Z,10.24
2019-05-02T03:24:20.000Z,10.23
2019-05-02T03:25:20.000Z,10.23
2019-05-02T03:26:20.000Z,10.21
2019-05-02T03:27:20.000Z,10.22
2019-05-02T03:28:20.000Z,10.21
2019-05-02T03:29:20.000Z,10.19
2019-05-02T03:30:20.000Z,10.19
2019-05-02T03:31:20.000Z,10.15
2019-05-02T03:32:20.000Z,10.16
2019-05-02T03:33:20.000Z,10.16
2019-05-02T03:34:20.000Z,10.17
2019-05-02T03:35:20.000Z,10.15
2019-05-02T03:36:20.000Z,10.16
2019-05-02T03:37:20.000Z,10.15
2019-05-02T03:38:20.000Z,10.14
2019-05-02T03:39:20.000Z,10.15
2019-05-02T03:40:20.000Z,10.15
2019-05-02T03:41:20.000Z,10.16
2019-05-02T03:42:20.000Z,10.16
2019-05-02T03:43:20.000Z,10.17
2019-05-02T03:44:20.000Z,10.17
2019-05-02T03:45:20.000Z,10.18
2019-05-02T03:46:20.000Z,10.17
2019-05-02T03:47:20.000Z,10.17
2019-05-02T03:48:20.000Z,10.17
2019-05-02T03:49:20.000Z,10.16
2019-05-02T03:50:20.000Z,10.17
2019-05-02T03:51:20.000Z,10.15
2019-05-02T03:52:20.000Z,10.20
2019-05-02T03:53:20.000Z,10.18
2019-05-02T03:54:20.000Z,10.17
2019-05-02T03:55:20.000Z,10.20
2019-05-02T03:56:20.000Z,10.20
2019-05-02T03:57:20.000Z,10.19
2019-05-02T03:58:20.000Z,10.19
2019-05-02T03:59:20.000Z,10.17
2019-05-02T04:00:20.000Z,10.12
2019-05-02T04:01:20.000Z,10.12
2019-05-02T04:02:20.000Z,10.07
2019-05-02T04:03:20.000Z,10.10
2019-05-02T04:04:20.000Z,10.10
2019-05-02T04:05:20.000Z,10.12
2019-05-02T04:06:20.000Z,10.14
2019-05-02T04:07:20.000Z,10.14
2019-05-02T04:08:20.000Z,10.15
2019-05-02T04:09:20.000Z,10.14
2019-05-02T04:10:20.000Z,10.17
2019-05-02T04:11:21.000Z,10.17
2019-05-02T04:12:20.000Z,10.13
2019-05-02T04:13:20.000Z,10.13
2019-05-02T04:14:20.000Z,10.08
2019-05-02T04:15:20.000Z,10.07
2019-05-02T04:16:20.000Z,10.06
2019-05-02T04:17:20.000Z,10.06
2019-05-02T04:18:20.000Z,10.07
2019-05-02T04:19:20.000Z,10.08
2019-05-02T04:20:20.000Z,10.09
2019-05-02T04:21:20.000Z,10.10
2019-05-02T04:22:20.000Z,10.10
2019-05-02T04:23:20.000Z,10.10
2019-05-02T04:24:20.000Z,10.13
2019-05-02T04:25:21.000Z,10.11
2019-05-02T04:26:20.000Z,10.13
2019-05-02T04:27:20.000Z,10.09
2019-05-02T04:28:20.000Z,10.09
2019-05-02T04:29:20.000Z,10.09
2019-05-02T04:30:20.000Z,10.09
2019-05-02T04:31:20.000Z,10.09
2019-05-02T04:32:20.000Z,10.11
2019-05-02T04:33:21.000Z,10.10
2019-05-02T04:34:20.000Z,10.13
2019-05-02T04:35:20.000Z,10.13
2019-05-02T04:36:20.000Z,10.13
2019-05-02T04:37:20.000Z,10.13
2019-05-02T04:38:20.000Z,10.13
2019-05-02T04:39:20.000Z,10.13
2019-05-02T04:40:20.000Z,10.13
2019-05-02T04:41:20.000Z,10.13
2019-05-02T04:42:20.000Z,10.15
2019-05-02T04:43:20.000Z,10.16
2019-05-02T04:44:20.000Z,10.18
2019-05-02T04:45:20.000Z,10.20
2019-05-02T04:46:20.000Z,10.20
2019-05-02T04:47:20.000Z,10.24
2019-05-02T04:48:20.000Z,10.25
2019-05-02T04:49:20.000Z,10.25
2019-05-02T04:50:20.000Z,10.25
2019-05-02T04:51:20.000Z,10.26
2019-05-02T04:52:20.000Z,10.27
2019-05-02T04:53:20.000Z,10.27
2019-05-02T04:54:21.000Z,10.28
2019-05-02T04:55:20.000Z,10.28
2019-05-02T04:56:20.000Z,10.27
2019-05-02T04:57:20.000Z,10.27
2019-05-02T04:58:20.000Z,10.29
2019-05-02T04:59:20.000Z,10.31
2019-05-02T05:00:20.000Z,10.32
2019-05-02T05:01:20.000Z,10.31
2019-05-02T05:02:20.000Z,10.32
2019-05-02T05:03:20.000Z,10.33
2019-05-02T05:04:22.000Z,10.36
2019-05-02T05:05:20.000Z,10.34
2019-05-02T05:06:20.000Z,10.37
2019-05-02T05:07:20.000Z,10.34
2019-05-02T05:08:20.000Z,10.34
2019-05-02T05:09:20.000Z,10.35
2019-05-02T05:10:20.000Z,10.37
2019-05-02T05:11:20.000Z,10.40
2019-05-02T05:12:20.000Z,10.41
2019-05-02T05:13:20.000Z,10.44
2019-05-02T05:14:20.000Z,10.46
2019-05-02T05:15:20.000Z,10.48
2019-05-02T05:16:20.000Z,10.51
2019-05-02T05:17:20.000Z,10.55
2019-05-02T05:18:20.000Z,10.53
2019-05-02T05:19:20.000Z,10.58
2019-05-02T05:20:20.000Z,10.58
2019-05-02T05:21:20.000Z,10.59
2019-05-02T05:22:20.000Z,10.63
2019-05-02T05:23:20.000Z,10.64
2019-05-02T05:24:20.000Z,10.67
2019-05-02T05:25:20.000Z,10.69
2019-05-02T05:26:20.000Z,10.70
2019-05-02T05:27:20.000Z,10.74
2019-05-02T05:28:20.000Z,10.75
2019-05-02T05:29:20.000Z,10.76
2019-05-02T05:30:20.000Z,10.77
2019-05-02T05:31:20.000Z,10.78
2019-05-02T05:32:20.000Z,10.80
2019-05-02T05:33:20.000Z,10.78
2019-05-02T05:34:20.000Z,10.82
2019-05-02T05:35:20.000Z,10.82
2019-05-02T05:36:20.000Z,10.83
2019-05-02T05:37:21.000Z,10.86
2019-05-02T05:38:21.000Z,10.84
2019-05-02T05:39:20.000Z,10.86
2019-05-02T05:40:20.000Z,10.87
2019-05-02T05:41:20.000Z,10.87
2019-05-02T05:42:20.000Z,10.87
2019-05-02T05:43:20.000Z,10.92
2019-05-02T05:44:20.000Z,10.90
2019-05-02T05:45:20.000Z,10.92
2019-05-02T05:46:20.000Z,10.93
2019-05-02T05:47:20.000Z,10.94
2019-05-02T05:48:20.000Z,10.96
2019-05-02T05:49:20.000Z,10.96
2019-05-02T05:50:20.000Z,10.99
2019-05-02T05:51:20.000Z,11.00
2019-05-02T05:52:20.000Z,10.99
2019-05-02T05:53:20.000Z,11.01
2019-05-02T05:54:20.000Z,11.03
2019-05-02T05:55:20.000Z,11.04
2019-05-02T05:56:20.000Z,11.05
2019-05-02T05:57:20.000Z,11.06
2019-05-02T05:58:20.000Z,11.08
2019-05-02T05:59:20.000Z,11.10
2019-05-02T06:00:20.000Z,11.08
2019-05-02T06:01:20.000Z,11.11
2019-05-02T06:02:20.000Z,11.16
2019-05-02T06:03:20.000Z,11.15
2019-05-02T06:04:20.000Z,11.17
2019-05-02T06:05:20.000Z,11.16
2019-05-02T06:06:20.000Z,11.20
2019-05-02T06:07:20.000Z,11.22
2019-05-02T06:08:20.000Z,11.21
2019-05-02T06:09:20.000Z,11.23
2019-05-02T06:10:20.000Z,11.26
2019-05-02T06:11:20.000Z,11.26
2019-05-02T06:12:20.000Z,11.30
2019-05-02T06:13:20.000Z,11.32
2019-05-02T06:14:20.000Z,11.32
2019-05-02T06:15:20.000Z,11.33
2019-05-02T06:16:20.000Z,11.38
2019-05-02T06:17:20.000Z,11.43
2019-05-02T06:18:20.000Z,11.45
2019-05-02T06:19:20.000Z,11.46
2019-05-02T06:20:20.000Z,11.48
2019-05-02T06:21:21.000Z,11.51
2019-05-02T06:22:20.000Z,11.52
2019-05-02T06:23:20.000Z,11.57
2019-05-02T06:24:20.000Z,11.57
2019-05-02T06:25:20.000Z,11.61
2019-05-02T06:26:20.000Z,11.65
2019-05-02T06:27:20.000Z,11.66
2019-05-02T06:28:20.000Z,11.69
2019-05-02T06:29:20.000Z,11.71
2019-05-02T06:30:20.000Z,11.75
2019-05-02T06:31:20.000Z,11.76
2019-05-02T06:32:20.000Z,11.80
2019-05-02T06:33:20.000Z,11.82
2019-05-02T06:34:20.000Z,11.85
2019-05-02T06:35:20.000Z,11.87
2019-05-02T06:36:20.000Z,11.88
2019-05-02T06:37:20.000Z,11.90
2019-05-02T06:38:20.000Z,11.91
2019-05-02T06:39:20.000Z,11.94
2019-05-02T06:40:20.000Z,11.94
2019-05-02T06:41:20.000Z,11.95
2019-05-02T06:42:21.000Z,11.99
2019-05-02T06:43:20.000Z,12.02
2019-05-02T06:44:20.000Z,12.06
2019-05-02T06:45:20.000Z,12.06
2019-05-02T06:46:20.000Z,12.06
2019-05-02T06:47:20.000Z,12.11
2019-05-02T06:48:20.000Z,12.13
2019-05-02T06:49:20.000Z,12.17
2019-05-02T06:50:20.000Z,12.08
2019-05-02T06:51:20.000Z,11.99
2019-05-02T06:52:20.000Z,11.99
2019-05-02T06:53:20.000Z,11.87
2019-05-02T06:54:20.000Z,11.91
2019-05-02T06:55:20.000Z,11.95
2019-05-02T06:56:20.000Z,11.95
2019-05-02T06:57:20.000Z,11.90
2019-05-02T06:58:20.000Z,11.97
2019-05-02T06:59:20.000Z,12.01
2019-05-02T07:00:20.000Z,12.05
2019-05-02T07:01:20.000Z,12.07
2019-05-02T07:02:21.000Z,12.08
2019-05-02T07:03:20.000Z,12.14
2019-05-02T07:04:20.000Z,12.12
2019-05-02T07:05:20.000Z,12.13
2019-05-02T07:06:20.000Z,12.17
2019-05-02T07:07:20.000Z,12.19
2019-05-02T07:08:20.000Z,12.21
2019-05-02T07:09:20.000Z,12.24
2019-05-02T07:10:20.000Z,12.27
2019-05-02T07:11:20.000Z,12.32
2019-05-02T07:12:20.000Z,12.29
2019-05-02T07:13:20.000Z,12.29
2019-05-02T07:14:20.000Z,12.25
2019-05-02T07:15:20.000Z,12.25
2019-05-02T07:16:20.000Z,12.29
2019-05-02T07:17:20.000Z,12.31
2019-05-02T07:18:20.000Z,12.33
2019-05-02T07:19:20.000Z,12.34
2019-05-02T07:20:20.000Z,12.38
2019-05-02T07:21:20.000Z,12.41
2019-05-02T07:22:20.000Z,12.39
2019-05-02T07:23:20.000Z,12.39
2019-05-02T07:24:20.000Z,12.36
2019-05-02T07:25:20.000Z,12.39
2019-05-02T07:26:20.000Z,12.40
2019-05-02T07:27:20.000Z,12.46
2019-05-02T07:28:20.000Z,12.47
2019-05-02T07:29:20.000Z,12.52
2019-05-02T07:30:20.000Z,12.50
2019-05-02T07:31:20.000Z,12.38
2019-05-02T07:32:20.000Z,12.44
2019-05-02T07:33:20.000Z,12.49
2019-05-02T07:34:20.000Z,12.51
2019-05-02T07:35:20.000Z,12.55
2019-05-02T07:36:20.000Z,12.51
2019-05-02T07:37:21.000Z,12.53
2019-05-02T07:38:20.000Z,12.58
2019-05-02T07:39:20.000Z,12.60
2019-05-02T07:40:20.000Z,12.56
2019-05-02T07:41:20.000Z,12.58
2019-05-02T07:42:20.000Z,12.61
2019-05-02T07:43:20.000Z,12.62
2019-05-02T07:44:20.000Z,12.69
2019-05-02T07:45:20.000Z,12.72
2019-05-02T07:46:20.000Z,12.70
2019-05-02T07:47:20.000Z,12.71
2019-05-02T07:48:20.000Z,12.75
2019-05-02T07:49:20.000Z,12.81
2019-05-02T07:50:20.000Z,12.84
2019-05-02T07:51:20.000Z,12.82
2019-05-02T07:52:20.000Z,12.90
2019-05-02T07:53:20.000Z,12.85
2019-05-02T07:54:20.000Z,12.85
2019-05-02T07:55:20.000Z,12.90
2019-05-02T07:56:20.000Z,12.92
2019-05-02T07:57:20.000Z,12.93
2019-05-02T07:58:21.000Z,12.95
2019-05-02T07:59:20.000Z,12.94
2019-05-02T08:00:20.000Z,12.95
2019-05-02T08:01:21.000Z,12.95
2019-05-02T08:02:20.000Z,12.96
2019-05-02T08:03:20.000Z,12.96
2019-05-02T08:04:20.000Z,12.94
2019-05-02T08:05:20.000Z,12.92
2019-05-02T08:06:20.000Z,12.95
2019-05-02T08:07:20.000Z,13.00
2019-05-02T08:08:20.000Z,13.06
2019-05-02T08:09:20.000Z,13.14
2019-05-02T08:10:20.000Z,13.19
2019-05-02T08:11:20.000Z,13.26
2019-05-02T08:12:20.000Z,13.28
2019-05-02T08:13:20.000Z,13.27
2019-05-02T08:14:20.000Z,13.31
2019-05-02T08:15:20.000Z,13.33
2019-05-02T08:16:20.000Z,13.40
2019-05-02T08:17:20.000Z,13.35
2019-05-02T08:18:20.000Z,13.37
2019-05-02T08:19:20.000Z,13.36
2019-05-02T08:20:21.000Z,13.40
2019-05-02T08:21:20.000Z,13.41
2019-05-02T08:22:20.000Z,13.40
2019-05-02T08:23:20.000Z,13.47
2019-05-02T08:24:20.000Z,13.53
2019-05-02T08:25:20.000Z,13.57
2019-05-02T08:26:20.000Z,13.63
2019-05-02T08:27:20.000Z,13.70
2019-05-02T08:28:20.000Z,13.75
2019-05-02T08:29:20.000Z,13.77
2019-05-02T08:30:20.000Z,13.81
2019-05-02T08:31:20.000Z,13.85
2019-05-02T08:32:20.000Z,13.81
2019-05-02T08:33:20.000Z,13.83
2019-05-02T08:34:20.000Z,13.87
2019-05-02T08:35:20.000Z,13.90
2019-05-02T08:36:20.000Z,13.96
2019-05-02T08:37:20.000Z,13.97
2019-05-02T08:38:20.000Z,13.96
2019-05-02T08:39:20.000Z,13.93
2019-05-02T08:40:20.000Z,13.91
2019-05-02T08:41:20.000Z,13.90
2019-05-02T08:42:20.000Z,13.89
2019-05-02T08:43:20.000Z,13.93
2019-05-02T08:44:20.000Z,14.01
2019-05-02T08:45:20.000Z,14.01
2019-05-02T08:46:20.000Z,13.98
2019-05-02T08:47:20.000Z,13.98
2019-05-02T08:48:20.000Z,14.01
2019-05-02T08:49:20.000Z,14.05
2019-05-02T08:50:20.000Z,14.12
2019-05-02T08:51:20.000Z,14.14
2019-05-02T08:52:20.000Z,14.19
2019-05-02T08:53:20.000Z,14.27
2019-05-02T08:54:20.000Z,14.31
2019-05-02T08:55:20.000Z,14.39
2019-05-02T08:56:20.000Z,14.40
2019-05-02T08:57:20.000Z,14.45
2019-05-02T08:58:20.000Z,14.53
2019-05-02T08:59:20.000Z,14.59
2019-05-02T09:00:20.000Z,14.62
2019-05-02T09:01:20.000Z,14.66
2019-05-02T09:02:20.000Z,14.70
2019-05-02T09:03:20.000Z,14.75
2019-05-02T09:04:20.000Z,14.83
2019-05-02T09:05:20.000Z,14.89
2019-05-02T09:06:20.000Z,14.94
2019-05-02T09:07:20.000Z,15.03
2019-05-02T09:08:20.000Z,15.00
2019-05-02T09:09:20.000Z,15.00
2019-05-02T09:10:20.000Z,14.94
2019-05-02T09:11:20.000Z,14.98
2019-05-02T09:12:20.000Z,15.03
2019-05-02T09:13:20.000Z,15.07
2019-05-02T09:14:20.000Z,15.14
2019-05-02T09:15:20.000Z,15.17
2019-05-02T09:16:20.000Z,15.16
2019-05-02T09:17:20.000Z,15.02
2019-05-02T09:18:20.000Z,14.95
2019-05-02T09:19:20.000Z,14.96
2019-05-02T09:20:20.000Z,15.03
2019-05-02T09:21:20.000Z,15.08
2019-05-02T09:22:20.000Z,15.11
2019-05-02T09:23:20.000Z,15.16
2019-05-02T09:24:20.000Z,15.22
2019-05-02T09:25:20.000Z,15.17
2019-05-02T09:26:20.000Z,15.23
2019-05-02T09:27:20.000Z,15.30
2019-05-02T09:28:20.000Z,15.37
2019-05-02T09:29:20.000Z,15.49
2019-05-02T09:30:20.000Z,15.51
2019-05-02T09:31:20.000Z,15.57
2019-05-02T09:32:20.000Z,15.57
2019-05-02T09:33:20.000Z,15.44
2019-05-02T09:34:20.000Z,15.40
2019-05-02T09:35:20.000Z,15.46
2019-05-02T09:36:21.000Z,15.55
2019-05-02T09:37:20.000Z,15.60
2019-05-02T09:40:20.000Z,15.77
2019-05-02T09:41:20.000Z,15.84
2019-05-02T09:42:20.000Z,15.87
2019-05-02T09:43:20.000Z,15.92
2019-05-02T09:44:20.000Z,15.89
2019-05-02T09:45:20.000Z,15.94
2019-05-02T09:46:20.000Z,15.98
2019-05-02T09:47:20.000Z,16.03
2019-05-02T09:48:20.000Z,16.07
2019-05-02T09:49:20.000Z,16.12
2019-05-02T09:50:20.000Z,16.16
2019-05-02T09:51:20.000Z,16.20
2019-05-02T09:52:20.000Z,16.25
2019-05-02T09:53:20.000Z,16.28
2019-05-02T09:54:20.000Z,16.32
2019-05-02T09:55:20.000Z,16.36
2019-05-02T09:56:20.000Z,16.36
2019-05-02T09:57:20.000Z,16.35
2019-05-02T09:58:20.000Z,16.40
2019-05-02T09:59:20.000Z,16.43
2019-05-02T10:00:20.000Z,16.47
2019-05-02T10:01:20.000Z,16.47
2019-05-02T10:02:20.000Z,16.49
2019-05-02T10:03:20.000Z,16.54
2019-05-02T10:04:20.000Z,16.49
2019-05-02T10:05:20.000Z,16.53
2019-05-02T10:06:20.000Z,16.53
2019-05-02T10:07:20.000Z,16.58
2019-05-02T10:08:20.000Z,16.59
2019-05-02T10:09:20.000Z,16.67
2019-05-02T10:10:20.000Z,16.72
2019-05-02T10:11:20.000Z,16.77
2019-05-02T10:12:20.000Z,16.72
2019-05-02T10:13:21.000Z,16.57
2019-05-02T10:14:20.000Z,16.49
2019-05-02T10:15:20.000Z,16.47
2019-05-02T10:16:20.000Z,16.52
2019-05-02T10:17:20.000Z,16.57
2019-05-02T10:18:20.000Z,16.64
2019-05-02T10:19:20.000Z,16.71
2019-05-02T10:20:20.000Z,16.72
2019-05-02T10:21:20.000Z,16.75
2019-05-02T10:22:20.000Z,16.80
2019-05-02T10:23:20.000Z,16.75
2019-05-02T10:24:20.000Z,16.89
2019-05-02T10:25:20.000Z,16.92
2019-05-02T10:26:20.000Z,16.99
2019-05-02T10:27:20.000Z,17.04
2019-05-02T10:28:20.000Z,17.10
2019-05-02T10:29:20.000Z,17.14
2019-05-02T10:30:21.000Z,17.16
2019-05-02T10:31:20.000Z,17.17
2019-05-02T10:32:20.000Z,17.23
2019-05-02T10:33:20.000Z,17.22
2019-05-02T10:34:20.000Z,17.24
2019-05-02T10:35:20.000Z,17.29
2019-05-02T10:36:20.000Z,17.28
2019-05-02T10:37:20.000Z,17.20
2019-05-02T10:38:20.000Z,17.23
2019-05-02T10:39:20.000Z,17.28
2019-05-02T10:40:20.000Z,17.27
2019-05-02T10:41:20.000Z,17.34
2019-05-02T10:42:20.000Z,17.40
2019-05-02T10:43:20.000Z,17.42
2019-05-02T10:44:20.000Z,17.42
2019-05-02T10:45:20.000Z,17.40
2019-05-02T10:46:20.000Z,17.45
2019-05-02T10:47:20.000Z,17.52
2019-05-02T10:48:20.000Z,17.59
2019-05-02T10:49:20.000Z,17.68
2019-05-02T10:50:20.000Z,17.71
2019-05-02T10:51:20.000Z,17.72
2019-05-02T10:52:20.000Z,17.76
2019-05-02T10:53:20.000Z,17.77
2019-05-02T10:54:20.000Z,17.81
2019-05-02T10:55:20.000Z,17.82
2019-05-02T10:56:20.000Z,17.89
2019-05-02T10:57:20.000Z,17.88
2019-05-02T10:58:21.000Z,17.90
2019-05-02T10:59:20.000Z,17.92
2019-05-02T11:00:20.000Z,17.92
2019-05-02T11:01:20.000Z,17.97
2019-05-02T11:02:20.000Z,18.01
2019-05-02T11:03:20.000Z,18.06
2019-05-02T11:04:20.000Z,18.09
2019-05-02T11:05:20.000Z,18.14
2019-05-02T11:06:20.000Z,18.16
2019-05-02T11:07:20.000Z,18.20
2019-05-02T11:08:20.000Z,18.26
2019-05-02T11:09:20.000Z,18.29
2019-05-02T11:10:20.000Z,18.26
2019-05-02T11:11:20.000Z,18.23
2019-05-02T11:12:20.000Z,18.18
2019-05-02T11:13:21.000Z,18.18
2019-05-02T11:14:20.000Z,18.24
2019-05-02T11:15:20.000Z,18.28
2019-05-02T11:16:20.000Z,18.36
2019-05-02T11:17:20.000Z,18.39
2019-05-02T11:18:20.000Z,18.44
2019-05-02T11:19:20.000Z,18.46
2019-05-02T11:20:20.000Z,18.38
2019-05-02T11:21:20.000Z,18.32
2019-05-02T11:22:20.000Z,18.17
2019-05-02T11:23:20.000Z,18.17
2019-05-02T11:24:20.000Z,18.19
2019-05-02T11:25:20.000Z,18.35
2019-05-02T11:26:20.000Z,18.33
2019-05-02T11:27:20.000Z,18.39
2019-05-02T11:28:20.000Z,18.47
2019-05-02T11:29:20.000Z,18.47
2019-05-02T11:30:20.000Z,18.52
2019-05-02T11:31:20.000Z,18.53
2019-05-02T11:32:20.000Z,18.47
2019-05-02T11:33:20.000Z,18.50
2019-05-02T11:34:20.000Z,18.50
2019-05-02T11:35:20.000Z,18.58
2019-05-02T11:36:20.000Z,18.47
2019-05-02T11:37:20.000Z,18.44
2019-05-02T11:38:20.000Z,18.45
2019-05-02T11:39:20.000Z,18.47
2019-05-02T11:40:21.000Z,18.43
2019-05-02T11:41:20.000Z,18.54
2019-05-02T11:42:20.000Z,18.60
2019-05-02T11:43:20.000Z,18.73
2019-05-02T11:44:20.000Z,18.86
2019-05-02T11:45:20.000Z,18.84
2019-05-02T11:46:20.000Z,18.86
2019-05-02T11:47:20.000Z,18.90
2019-05-02T11:48:20.000Z,18.98
2019-05-02T11:49:20.000Z,19.02
2019-05-02T11:50:20.000Z,19.00
2019-05-02T11:51:20.000Z,18.92
2019-05-02T11:52:20.000Z,18.89
2019-05-02T11:53:20.000Z,18.95
2019-05-02T11:54:20.000Z,18.99
2019-05-02T11:55:20.000Z,19.06
2019-05-02T11:56:21.000Z,19.11
2019-05-02T11:57:20.000Z,19.16
2019-05-02T11:58:20.000Z,19.18
2019-05-02T11:59:20.000Z,19.22
2019-05-02T12:00:20.000Z,19.20
2019-05-02T12:01:20.000Z,19.26
2019-05-02T12:02:20.000Z,19.31
2019-05-02T12:03:20.000Z,19.26
2019-05-02T12:04:20.000Z,19.22
2019-05-02T12:05:20.000Z,19.26
2019-05-02T12:06:20.000Z,19.33
2019-05-02T12:07:20.000Z,19.24
2019-05-02T12:08:20.000Z,19.27
2019-05-02T12:09:20.000Z,19.28
2019-05-02T12:10:20.000Z,19.27
2019-05-02T12:11:20.000Z,19.27
2019-05-02T12:12:20.000Z,19.30
2019-05-02T12:13:20.000Z,19.34
2019-05-02T12:14:20.000Z,19.39
2019-05-02T12:15:20.000Z,19.41
2019-05-02T12:16:20.000Z,19.42
2019-05-02T12:17:20.000Z,19.40
2019-05-02T12:18:20.000Z,19.39
2019-05-02T12:19:20.000Z,19.28
2019-05-02T12:20:20.000Z,19.30
2019-05-02T12:21:20.000Z,19.26
2019-05-02T12:22:20.000Z,19.27
2019-05-02T12:23:20.000Z,19.34
2019-05-02T12:24:20.000Z,19.38
2019-05-02T12:25:20.000Z,19.41
2019-05-02T12:26:20.000Z,19.36
2019-05-02T12:27:20.000Z,19.38
2019-05-02T12:28:20.000Z,19.34
2019-05-02T12:29:20.000Z,19.33
2019-05-02T12:30:20.000Z,19.31
2019-05-02T12:31:20.000Z,19.27
2019-05-02T12:32:20.000Z,19.28
2019-05-02T12:33:20.000Z,19.25
2019-05-02T12:34:20.000Z,19.24
2019-05-02T12:35:20.000Z,19.27
2019-05-02T12:36:20.000Z,19.27
2019-05-02T12:37:20.000Z,19.31
2019-05-02T12:38:20.000Z,19.32
2019-05-02T12:39:20.000Z,19.31
2019-05-02T12:40:20.000Z,19.27
2019-05-02T12:41:20.000Z,19.36
2019-05-02T12:42:20.000Z,19.40
2019-05-02T12:43:20.000Z,19.29
2019-05-02T12:44:20.000Z,19.28
2019-05-02T12:45:20.000Z,19.42
2019-05-02T12:46:20.000Z,19.52
2019-05-02T12:47:20.000Z,19.61
2019-05-02T12:48:20.000Z,19.71
2019-05-02T12:49:20.000Z,19.81
2019-05-02T12:50:20.000Z,19.88
2019-05-02T12:51:20.000Z,19.94
2019-05-02T12:52:20.000Z,19.93
2019-05-02T12:53:20.000Z,20.02
2019-05-02T12:54:20.000Z,20.07